Detalii statie COMAGRA BEREGSAU [00001994]

Toti senzorii

Date Temperatura solului [C]Precipitatii [mm]Voltaj baterie [mV]Leaf Wetness [Min]HC Air temperature [C]HC Relative humidity [%]Punctul de roua [C]
medieminmaxsumaultimatimpmedieminmaxmediemediemin
2018-02-23 13:00:00 3.6 3.5 3.9 0 7138 6.03 5.63 6.78 100 5.9 5.6
2018-02-23 14:00:00 3.9 3.8 4.2 0 7196 6.95 6.56 7.42 100 6.9 6.5
2018-02-23 15:00:00 4.4 4.3 4.6 0 7186 7.83 7.52 8.52 100 7.7 7.5
2018-02-23 16:00:00 4.8 4.6 5 0 7080 7.41 7.15 7.62 100 7.3 7.1
2018-02-23 17:00:00 5.2 5 5.4 0 6972 6.54 6.36 7.07 100 6.5 6.3
2018-02-23 18:00:00 5.3 5.1 5.4 0 6914 6.06 5.79 6.28 100 6 5.7
2018-02-23 19:00:00 5.2 5.2 5.4 0.2 6874 5.47 5.29 5.7 100 5.4 5.2
2018-02-23 20:00:00 5.1 5 5.3 0 6864 5.12 5.02 5.25 100 5 5
2018-02-23 21:00:00 5 4.8 5.1 0 6854 4.6 4.26 4.98 100 4.5 4.2
2018-02-23 22:00:00 4.8 4.7 5.1 0 6844 3.98 3.78 4.23 100 3.9 3.7
2018-02-23 23:00:00 4.7 4.7 4.9 0 6834 3.68 3.53 3.8 100 3.6 3.5
2018-02-24 00:00:00 4.6 4.4 4.8 0 6834 3.12 2.58 3.52 100 3 2.5
2018-02-24 01:00:00 4.5 4.4 4.6 0 6816 2.05 1.36 2.53 100 1.9 1.3
2018-02-24 02:00:00 4.3 4.2 4.6 0 6816 1.02 0.71 1.32 100 0.9 0.7
2018-02-24 03:00:00 4.1 4 4.3 0 6816 0.57 0.34 0.68 100 0.5 0.3
2018-02-24 04:00:00 3.9 3.9 4.1 0 6816 0.05 -0.32 0.29 100 0 -0.2
2018-02-24 05:00:00 3.7 3.6 3.9 0 6806 -0.44 -0.61 -0.24 100 -0.3 -0.5
2018-02-24 06:00:00 3.5 3.3 3.7 0 6806 -0.84 -0.94 -0.57 100 -0.7 -0.8
2018-02-24 07:00:00 3.2 3.1 3.4 0 6796 -1.2 -1.38 -0.96 100 -1 -1.2
2018-02-24 08:00:00 3 3 3.2 0 6796 -1.56 -1.73 -1.34 100 -1.4 -1.6
2018-02-24 09:00:00 2.8 2.8 3 0 6816 -1.83 -1.97 -1.68 100 -1.6 -1.8
2018-02-24 10:00:00 2.6 2.5 2.8 0 6894 -1.93 -2.05 -1.74 100 -1.7 -1.9
2018-02-24 11:00:00 2.5 2.4 2.6 0 7060 -1.91 -2.05 -1.79 100 -1.7 -1.9
2018-02-24 12:00:00 2.3 2.3 2.5 0 7186 -1.63 -1.97 -1.14 100 -1.4 -1.8
2018-02-24 13:00:00 2.2 2.2 2.4 0 7166 -1.02 -1.31 -0.74 100 -0.8 -1.2
2018-02-24 14:00:00 2.2 2.1 2.3 0 7196 0.05 -0.69 0.72 100 0 -0.5
2018-02-24 15:00:00 2.2 2.1 2.4 0 7206 0.59 0.32 0.94 100 0.5 0.3
2018-02-24 16:00:00 2.3 2.2 2.5 0 7196 1.03 0.47 1.56 100 0.9 0.4
2018-02-24 17:00:00 2.4 2.4 2.6 0 7206 0.91 0.4 1.21 100 0.8 0.4
2018-02-24 18:00:00 2.5 2.4 2.7 0 7108 0.01 -0.62 0.73 100 0 -0.5
2018-02-24 19:00:00 2.3 2.3 2.5 0 6942 -1.26 -1.66 -0.8 100 -1.1 -1.5
2018-02-24 20:00:00 2.2 2.1 2.4 0 6894 -2.12 -2.3 -1.79 100 -1.9 -2.2
2018-02-24 21:00:00 2.1 2.1 2.3 0 6864 -2.59 -2.82 -2.29 100 -2.4 -2.7
2018-02-24 22:00:00 2 1.9 2.2 0 6844 -3.21 -3.44 -2.82 100 -3 -3.3
2018-02-24 23:00:00 1.8 1.7 1.9 0 6834 -3.74 -3.9 -3.49 100 -3.5 -3.8
2018-02-25 00:00:00 1.7 1.5 1.9 0 6826 -4.16 -4.3 -3.91 100 -4 -4.2
2018-02-25 01:00:00 1.6 1.5 1.8 0 6816 -3.74 -3.96 -3.53 100 -3.5 -3.8
2018-02-25 02:00:00 1.4 1.3 1.6 0 6816 -3.77 -3.93 -3.61 100 -3.6 -3.8
2018-02-25 03:00:00 1.3 1.3 1.4 0 6806 -4.24 -4.49 -3.98 100 -4.1 -4.3
2018-02-25 04:00:00 1.3 1.3 1.4 0 6796 -4.78 -5.11 -4.49 100 -4.6 -5
2018-02-25 05:00:00 1.2 1.1 1.4 0 6786 -5.54 -5.94 -5.21 100 -5.4 -5.8
2018-02-25 06:00:00 1.1 1 1.3 0 6776 -6.45 -6.88 -6.01 100 -6.3 -6.7
2018-02-25 07:00:00 1 1 1.2 0 6766 -7.33 -7.64 -6.99 100 -7.1 -7.5
2018-02-25 08:00:00 0.9 0.9 1.1 0 6776 -7.73 -7.82 -7.59 100 -7.5 -7.7
2018-02-25 09:00:00 0.8 0.8 1 0 6894 -7.52 -7.66 -7.26 100 -7.3 -7.5
2018-02-25 10:00:00 0.8 0.7 0.9 0 7060 -6.78 -7.26 -6.24 100 -6.6 -7.1
2018-02-25 11:00:00 0.7 0.6 0.8 0 7186 -5.67 -6.39 -5.15 99.85 -5.5 -6.2
2018-02-25 12:00:00 0.6 0.5 0.8 0 7186 -4.69 -4.99 -4.33 98.95 -4.7 -5.2